createdAt,value
2023-01-11T00:00:47.929Z,5.40
2023-01-11T00:03:15.400Z,5.40
2023-01-11T00:05:42.938Z,5.40
2023-01-11T00:08:10.541Z,5.40
2023-01-11T00:10:37.819Z,5.40
2023-01-11T00:13:04.939Z,5.40
2023-01-11T00:15:32.164Z,5.50
2023-01-11T00:17:58.980Z,5.50
2023-01-11T00:20:25.823Z,5.50
2023-01-11T00:22:52.715Z,5.50
2023-01-11T00:25:20.056Z,5.50
2023-01-11T00:27:49.384Z,5.50
2023-01-11T00:30:17.453Z,5.50
2023-01-11T00:32:44.245Z,5.50
2023-01-11T00:35:11.407Z,5.50
2023-01-11T00:37:38.526Z,5.60
2023-01-11T00:40:05.886Z,5.60
2023-01-11T00:42:51.461Z,5.60
2023-01-11T00:45:36.772Z,5.60
2023-01-11T00:48:05.964Z,5.60
2023-01-11T00:50:38.244Z,5.60
2023-01-11T00:53:06.183Z,5.60
2023-01-11T00:55:33.128Z,5.60
2023-01-11T00:58:01.042Z,5.60
2023-01-11T01:00:28.995Z,5.60
2023-01-11T01:02:56.450Z,5.60
2023-01-11T01:05:23.435Z,5.70
2023-01-11T01:07:50.288Z,5.70
2023-01-11T01:10:17.778Z,5.70
2023-01-11T01:13:03.720Z,5.70
2023-01-11T01:15:31.178Z,5.70
2023-01-11T01:17:58.166Z,5.80
2023-01-11T01:20:25.188Z,5.80
2023-01-11T01:22:52.292Z,5.80
2023-01-11T01:25:19.144Z,5.90
2023-01-11T01:27:46.033Z,5.90
2023-01-11T01:30:13.088Z,5.90
2023-01-11T01:32:39.920Z,5.90
2023-01-11T01:35:07.145Z,6.00
2023-01-11T01:37:34.166Z,6.00
2023-01-11T01:40:00.991Z,6.00
2023-01-11T01:42:27.827Z,6.00
2023-01-11T01:44:59.034Z,6.00
2023-01-11T01:47:47.434Z,6.10
2023-01-11T01:50:31.949Z,6.10
2023-01-11T01:53:24.182Z,6.10
2023-01-11T01:55:57.391Z,6.20
2023-01-11T01:58:30.382Z,6.20
2023-01-11T02:00:57.128Z,6.20
2023-01-11T02:03:27.084Z,6.20
2023-01-11T02:05:54.218Z,6.30
2023-01-11T02:08:29.331Z,6.30
2023-01-11T02:10:56.177Z,6.30
2023-01-11T02:13:23.186Z,6.40
2023-01-11T02:16:07.446Z,6.40
2023-01-11T02:18:37.486Z,6.40
2023-01-11T02:21:35.849Z,6.50
2023-01-11T02:24:49.040Z,6.50
2023-01-11T02:27:43.620Z,6.50
2023-01-11T02:30:25.210Z,6.60
2023-01-11T02:33:17.295Z,6.60
2023-01-11T02:35:56.337Z,6.60
2023-01-11T02:38:33.317Z,6.60
2023-01-11T02:41:11.929Z,6.70
2023-01-11T02:44:20.926Z,6.70
2023-01-11T02:46:53.108Z,6.70
2023-01-11T02:49:32.132Z,6.70
2023-01-11T02:52:19.114Z,6.70
2023-01-11T02:54:53.956Z,6.70
2023-01-11T02:57:20.781Z,6.70
2023-01-11T02:59:49.886Z,6.70
2023-01-11T03:02:19.427Z,6.70
2023-01-11T03:04:46.156Z,6.70
2023-01-11T03:07:21.907Z,6.70
2023-01-11T03:10:33.972Z,6.70
2023-01-11T03:13:20.005Z,6.70
2023-01-11T03:16:11.914Z,6.70
2023-01-11T03:18:56.953Z,6.80
2023-01-11T03:21:45.462Z,6.80
2023-01-11T03:24:33.585Z,6.80
2023-01-11T03:27:27.497Z,6.80
2023-01-11T03:30:13.502Z,6.80
2023-01-11T03:32:48.070Z,6.80
2023-01-11T03:35:18.165Z,6.80
2023-01-11T03:37:46.503Z,6.90
2023-01-11T03:40:23.681Z,6.90
2023-01-11T03:43:12.848Z,6.90
2023-01-11T03:46:05.565Z,6.90
2023-01-11T03:48:38.222Z,7.00
2023-01-11T03:51:07.610Z,7.00
2023-01-11T03:53:36.434Z,7.10
2023-01-11T03:56:05.543Z,7.10
2023-01-11T03:58:32.418Z,7.10
2023-01-11T04:00:59.544Z,7.20
2023-01-11T04:03:28.184Z,7.20
2023-01-11T04:05:59.640Z,7.30
2023-01-11T04:08:26.747Z,7.30
2023-01-11T04:10:53.677Z,7.30
2023-01-11T04:13:20.615Z,7.30
2023-01-11T04:15:47.436Z,7.40
2023-01-11T04:18:14.223Z,7.40
2023-01-11T04:20:41.141Z,7.40
2023-01-11T04:23:10.277Z,7.50
2023-01-11T04:25:37.196Z,7.40
2023-01-11T04:28:04.247Z,7.50
2023-01-11T04:30:31.031Z,7.50
2023-01-11T04:32:59.228Z,7.50
2023-01-11T04:35:26.868Z,7.50
2023-01-11T04:37:55.394Z,7.50
2023-01-11T04:40:22.563Z,7.50
2023-01-11T04:42:49.331Z,7.50
2023-01-11T04:45:16.183Z,7.50
2023-01-11T04:47:42.999Z,7.50
2023-01-11T04:50:11.730Z,7.50
2023-01-11T04:52:40.647Z,7.60
2023-01-11T04:55:07.993Z,7.60
2023-01-11T04:57:34.776Z,7.60
2023-01-11T05:00:01.538Z,7.60
2023-01-11T05:02:28.335Z,7.60
2023-01-11T05:04:55.094Z,7.70
2023-01-11T05:07:22.104Z,7.70
2023-01-11T05:09:48.919Z,7.70
2023-01-11T05:12:15.660Z,7.70
2023-01-11T05:14:42.390Z,7.70
2023-01-11T05:17:13.814Z,7.70
2023-01-11T05:19:41.150Z,7.70
2023-01-11T05:22:08.261Z,7.80
2023-01-11T05:24:35.101Z,7.80
2023-01-11T05:27:01.919Z,7.80
2023-01-11T05:29:29.060Z,7.80
2023-01-11T05:31:55.944Z,7.80
2023-01-11T05:34:22.761Z,7.80
2023-01-11T05:36:49.521Z,7.90
2023-01-11T05:39:16.331Z,7.90
2023-01-11T05:41:43.208Z,7.90
2023-01-11T05:44:31.475Z,8.00
2023-01-11T05:46:58.277Z,8.00
2023-01-11T05:49:25.202Z,8.00
2023-01-11T05:51:52.279Z,8.00
2023-01-11T05:54:21.132Z,8.00
2023-01-11T05:56:47.922Z,8.00
2023-01-11T05:59:14.696Z,8.10
2023-01-11T06:01:42.095Z,8.10
2023-01-11T06:04:08.938Z,8.10
2023-01-11T06:06:35.989Z,8.10
2023-01-11T06:09:03.424Z,8.10
2023-01-11T06:11:33.646Z,8.20
2023-01-11T06:14:00.507Z,8.20
2023-01-11T06:16:27.318Z,8.20
2023-01-11T06:18:54.440Z,8.20
2023-01-11T06:21:21.577Z,8.20
2023-01-11T06:23:50.945Z,8.20
2023-01-11T06:26:20.478Z,8.30
2023-01-11T06:28:48.070Z,8.30
2023-01-11T06:31:17.353Z,8.30
2023-01-11T06:33:45.335Z,8.30
2023-01-11T06:36:13.146Z,8.30
2023-01-11T06:38:39.999Z,8.30
2023-01-11T06:41:10.671Z,8.40
2023-01-11T06:43:41.088Z,8.40
2023-01-11T06:46:12.399Z,8.40
2023-01-11T06:48:39.250Z,8.40
2023-01-11T06:51:06.101Z,8.40
2023-01-11T06:53:32.859Z,8.40
2023-01-11T06:55:59.966Z,8.40
2023-01-11T06:58:27.033Z,8.40
2023-01-11T07:00:56.114Z,8.40
2023-01-11T07:03:26.406Z,8.40
2023-01-11T07:05:54.267Z,8.40
2023-01-11T07:08:21.107Z,8.40
2023-01-11T07:10:48.049Z,8.40
2023-01-11T07:13:18.118Z,8.50
2023-01-11T07:15:48.407Z,8.50
2023-01-11T07:18:15.740Z,8.50
2023-01-11T07:20:42.632Z,8.50
2023-01-11T07:23:10.803Z,8.50
2023-01-11T07:25:37.668Z,8.50
2023-01-11T07:28:06.908Z,8.50
2023-01-11T07:30:47.883Z,8.50
2023-01-11T07:33:19.205Z,8.50
2023-01-11T07:35:49.786Z,8.60
2023-01-11T07:38:17.069Z,8.60
2023-01-11T07:40:43.978Z,8.60
2023-01-11T07:43:14.700Z,8.60
2023-01-11T07:45:46.742Z,8.60
2023-01-11T07:48:15.389Z,8.60
2023-01-11T07:50:44.858Z,8.60
2023-01-11T07:53:12.759Z,8.70
2023-01-11T07:55:40.213Z,8.70
2023-01-11T07:58:08.915Z,8.70
2023-01-11T08:00:35.685Z,8.70
2023-01-11T08:03:03.135Z,8.70
2023-01-11T08:05:30.159Z,8.70
2023-01-11T08:07:57.073Z,8.70
2023-01-11T08:10:23.974Z,8.70
2023-01-11T08:13:09.743Z,8.70
2023-01-11T08:15:36.790Z,8.70
2023-01-11T08:18:05.792Z,8.80
2023-01-11T08:20:35.707Z,8.80
2023-01-11T08:23:04.793Z,8.80
2023-01-11T08:25:40.168Z,8.80
2023-01-11T08:28:10.568Z,8.80
2023-01-11T08:30:38.225Z,8.80
2023-01-11T08:33:06.307Z,8.80
2023-01-11T08:35:38.522Z,8.80
2023-01-11T08:38:05.496Z,8.90
2023-01-11T08:40:32.339Z,8.90
2023-01-11T08:42:59.365Z,8.90
2023-01-11T08:45:26.176Z,8.90
2023-01-11T08:47:53.263Z,8.90
2023-01-11T08:50:22.074Z,8.90
2023-01-11T08:52:50.796Z,9.00
2023-01-11T08:55:18.055Z,9.00
2023-01-11T08:57:45.941Z,9.00
2023-01-11T09:00:16.550Z,9.10
2023-01-11T09:02:45.981Z,9.10
2023-01-11T09:05:12.911Z,9.10
2023-01-11T09:07:40.254Z,9.20
2023-01-11T09:10:07.428Z,9.20
2023-01-11T09:12:34.384Z,9.30
2023-01-11T09:15:01.348Z,9.30
2023-01-11T09:17:28.243Z,9.30
2023-01-11T09:19:55.288Z,9.30
2023-01-11T09:22:22.800Z,9.40
2023-01-11T09:24:49.845Z,9.40
2023-01-11T09:27:16.891Z,9.40
2023-01-11T09:29:44.053Z,9.50
2023-01-11T09:32:11.130Z,9.50
2023-01-11T09:34:39.428Z,9.50
2023-01-11T09:37:07.281Z,9.50
2023-01-11T09:39:35.280Z,9.50
2023-01-11T09:42:11.645Z,9.50
2023-01-11T09:45:18.563Z,9.50
2023-01-11T09:47:53.203Z,9.50
2023-01-11T09:50:23.468Z,9.60
2023-01-11T09:52:53.392Z,9.60
2023-01-11T09:55:37.033Z,9.60
2023-01-11T09:58:21.730Z,9.60
2023-01-11T10:01:15.207Z,9.60
2023-01-11T10:03:49.794Z,9.60
2023-01-11T10:06:26.998Z,9.60
2023-01-11T10:18:29.963Z,9.70
2023-01-11T10:19:25.125Z,9.70
2023-01-11T10:21:50.573Z,9.70
2023-01-11T10:24:25.470Z,9.80
2023-01-11T10:26:56.823Z,9.80
2023-01-11T10:29:53.420Z,9.70
2023-01-11T10:32:39.949Z,9.70
2023-01-11T10:35:57.628Z,9.70
2023-01-11T10:39:07.924Z,9.70
2023-01-11T10:41:43.142Z,9.70
2023-01-11T10:44:10.115Z,9.70
2023-01-11T10:46:40.265Z,9.70
2023-01-11T10:49:36.598Z,9.70
2023-01-11T10:52:20.060Z,9.70
2023-01-11T10:54:51.075Z,9.70
2023-01-11T10:57:30.211Z,9.70
2023-01-11T11:00:10.355Z,9.70
2023-01-11T11:03:08.390Z,9.70
2023-01-11T11:05:47.608Z,9.80
2023-01-11T11:08:26.482Z,9.80
2023-01-11T11:11:05.734Z,9.80
2023-01-11T11:13:35.921Z,9.80
2023-01-11T11:16:46.445Z,9.70
2023-01-11T11:19:17.299Z,9.70
2023-01-11T11:21:44.146Z,9.70
2023-01-11T11:24:32.345Z,9.70
2023-01-11T11:27:12.050Z,9.60
2023-01-11T11:29:48.474Z,9.60
2023-01-11T11:32:34.462Z,9.50
2023-01-11T11:35:03.512Z,9.50
2023-01-11T11:37:35.699Z,9.50
2023-01-11T11:40:02.922Z,9.40
2023-01-11T11:42:29.687Z,9.40
2023-01-11T11:45:08.832Z,9.30
2023-01-11T11:47:36.823Z,9.30
2023-01-11T11:50:41.980Z,9.20
2023-01-11T11:53:06.024Z,9.20
2023-01-11T11:55:34.917Z,9.20
2023-01-11T11:58:08.580Z,9.20
2023-01-11T12:00:41.554Z,9.20
2023-01-11T12:03:21.458Z,9.30
2023-01-11T12:06:02.614Z,9.30
2023-01-11T12:08:31.576Z,9.30
2023-01-11T12:11:03.596Z,9.30
2023-01-11T12:13:35.808Z,9.30
2023-01-11T12:16:05.902Z,9.30
2023-01-11T12:18:43.359Z,9.30
2023-01-11T12:21:22.307Z,9.30
2023-01-11T12:24:05.810Z,9.30
2023-01-11T12:26:51.262Z,9.30
2023-01-11T12:29:27.371Z,9.30
2023-01-11T12:32:03.271Z,9.30
2023-01-11T12:34:36.861Z,9.30
2023-01-11T12:37:31.931Z,9.30
2023-01-11T12:40:15.689Z,9.30
2023-01-11T12:42:59.359Z,9.30
2023-01-11T12:45:26.398Z,9.30
2023-01-11T12:48:21.314Z,9.20
2023-01-11T12:50:55.005Z,9.20
2023-01-11T12:53:56.263Z,9.20
2023-01-11T12:56:41.433Z,9.20
2023-01-11T12:59:23.452Z,9.10
2023-01-11T13:02:11.422Z,9.10
2023-01-11T13:04:52.153Z,9.10
2023-01-11T13:07:31.202Z,9.10
2023-01-11T13:10:13.755Z,9.10
2023-01-11T13:12:54.375Z,9.10
2023-01-11T13:16:00.914Z,9.00
2023-01-11T13:19:15.442Z,9.00
2023-01-11T13:21:53.107Z,9.00
2023-01-11T13:24:28.255Z,8.90
2023-01-11T13:27:01.509Z,8.90
2023-01-11T13:29:40.263Z,8.90
2023-01-11T13:32:13.885Z,8.80
2023-01-11T13:34:53.160Z,8.80
2023-01-11T13:37:29.905Z,8.80
2023-01-11T13:40:15.443Z,8.80
2023-01-11T13:42:46.262Z,8.80
2023-01-11T13:45:17.530Z,8.90
2023-01-11T13:47:48.152Z,8.90
2023-01-11T13:50:31.544Z,8.90
2023-01-11T13:53:10.174Z,9.00
2023-01-11T13:55:39.907Z,9.00
2023-01-11T13:58:16.576Z,9.00
2023-01-11T14:01:00.884Z,8.90
2023-01-11T14:03:42.024Z,8.90
2023-01-11T14:06:27.202Z,8.80
2023-01-11T14:09:33.284Z,8.70
2023-01-11T14:12:09.166Z,8.60
2023-01-11T14:14:48.380Z,8.50
2023-01-11T14:17:21.162Z,8.40
2023-01-11T14:20:06.666Z,8.30
2023-01-11T14:22:45.461Z,8.30
2023-01-11T14:25:37.800Z,8.20
2023-01-11T14:28:12.343Z,8.20
2023-01-11T14:30:57.915Z,8.10
2023-01-11T14:33:46.635Z,8.00
2023-01-11T14:36:37.309Z,8.00
2023-01-11T14:39:25.278Z,7.90
2023-01-11T14:42:29.296Z,7.80
2023-01-11T14:45:16.854Z,7.70
2023-01-11T14:48:08.687Z,7.70
2023-01-11T14:50:48.078Z,7.60
2023-01-11T14:53:18.707Z,7.50
2023-01-11T14:55:46.321Z,7.40
2023-01-11T14:58:29.984Z,7.40
2023-01-11T15:00:56.683Z,7.30
2023-01-11T15:03:23.450Z,7.30
2023-01-11T15:05:54.985Z,7.30
2023-01-11T15:08:26.995Z,7.30
2023-01-11T15:11:02.714Z,7.30
2023-01-11T15:13:33.820Z,7.30
2023-01-11T15:16:39.609Z,7.30
2023-01-11T15:19:10.095Z,7.20
2023-01-11T15:21:41.558Z,7.20
2023-01-11T15:24:21.815Z,7.20
2023-01-11T15:26:49.577Z,7.20
2023-01-11T15:29:22.326Z,7.20
2023-01-11T15:32:03.227Z,7.20
2023-01-11T15:34:39.004Z,7.20
2023-01-11T15:37:12.864Z,7.20
2023-01-11T15:39:46.780Z,7.20
2023-01-11T15:42:16.606Z,7.20
2023-01-11T15:44:58.731Z,7.30
2023-01-11T15:47:33.353Z,7.30
2023-01-11T15:50:06.375Z,7.30
2023-01-11T15:52:50.642Z,7.30
2023-01-11T15:55:42.233Z,7.30
2023-01-11T15:58:28.204Z,7.30
2023-01-11T16:01:18.380Z,7.20
2023-01-11T16:04:13.188Z,7.20
2023-01-11T16:06:46.247Z,7.20
2023-01-11T16:09:42.920Z,7.20
2023-01-11T16:12:36.700Z,7.20
2023-01-11T16:15:40.338Z,7.20
2023-01-11T16:18:29.052Z,7.10
2023-01-11T16:21:05.039Z,7.10
2023-01-11T16:23:32.607Z,7.10
2023-01-11T16:26:00.582Z,7.00
2023-01-11T16:28:27.985Z,7.00
2023-01-11T16:31:00.561Z,6.90
2023-01-11T16:33:29.983Z,6.90
2023-01-11T16:36:11.708Z,6.90
2023-01-11T16:38:47.530Z,6.80
2023-01-11T16:41:15.799Z,6.80
2023-01-11T16:44:15.696Z,6.80
2023-01-11T16:46:45.425Z,6.80
2023-01-11T16:49:17.872Z,6.80
2023-01-11T16:51:45.485Z,6.80
2023-01-11T16:54:16.797Z,6.80
2023-01-11T16:56:48.453Z,6.70
2023-01-11T16:59:15.230Z,6.70
2023-01-11T17:01:53.547Z,6.70
2023-01-11T17:04:37.941Z,6.70
2023-01-11T17:07:20.837Z,6.70
2023-01-11T17:09:47.715Z,6.60
2023-01-11T17:12:26.174Z,6.60
2023-01-11T17:15:31.277Z,6.60
2023-01-11T17:18:03.083Z,6.50
2023-01-11T17:20:30.632Z,6.50
2023-01-11T17:22:57.947Z,6.50
2023-01-11T17:25:43.862Z,6.50
2023-01-11T17:28:19.867Z,6.50
2023-01-11T17:30:48.591Z,6.50
2023-01-11T17:33:31.830Z,6.50
2023-01-11T17:35:59.309Z,6.50
2023-01-11T17:38:27.869Z,6.50
2023-01-11T17:40:58.611Z,6.50
2023-01-11T17:43:45.891Z,6.40
2023-01-11T17:46:17.273Z,6.40
2023-01-11T17:48:58.447Z,6.40
2023-01-11T17:51:33.615Z,6.40
2023-01-11T17:54:00.442Z,6.30
2023-01-11T17:56:35.063Z,6.30
2023-01-11T17:59:22.045Z,6.30
2023-01-11T18:02:02.174Z,6.30
2023-01-11T18:04:30.169Z,6.30
2023-01-11T18:07:06.775Z,6.30
2023-01-11T18:09:36.991Z,6.30
2023-01-11T18:12:21.891Z,6.40
2023-01-11T18:15:07.260Z,6.40
2023-01-11T18:17:37.095Z,6.40
2023-01-11T18:20:29.369Z,6.40
2023-01-11T18:23:11.917Z,6.40
2023-01-11T18:25:38.716Z,6.40
2023-01-11T18:28:11.678Z,6.50
2023-01-11T18:30:52.289Z,6.50
2023-01-11T18:33:22.567Z,6.50
2023-01-11T18:35:55.283Z,6.50
2023-01-11T18:38:28.772Z,6.50
2023-01-11T18:40:57.028Z,6.40
2023-01-11T18:43:31.057Z,6.40
2023-01-11T18:45:57.911Z,6.40
2023-01-11T18:48:24.737Z,6.40
2023-01-11T18:50:52.081Z,6.40
2023-01-11T18:53:18.911Z,6.40
2023-01-11T18:55:46.234Z,6.40
2023-01-11T18:58:13.075Z,6.40
2023-01-11T19:00:41.336Z,6.50
2023-01-11T19:03:09.797Z,6.50
2023-01-11T19:05:36.716Z,6.50
2023-01-11T19:08:03.618Z,6.60
2023-01-11T19:10:30.417Z,6.60
2023-01-11T19:12:57.698Z,6.60
2023-01-11T19:15:24.619Z,6.60
2023-01-11T19:17:51.420Z,6.70
2023-01-11T19:20:18.249Z,6.70
2023-01-11T19:22:45.178Z,6.70
2023-01-11T19:25:12.315Z,6.70
2023-01-11T19:27:39.390Z,6.70
2023-01-11T19:30:06.972Z,6.60
2023-01-11T19:32:33.816Z,6.60
2023-01-11T19:35:01.011Z,6.60
2023-01-11T19:37:30.053Z,6.60
2023-01-11T19:39:56.901Z,6.60
2023-01-11T19:42:23.893Z,6.50
2023-01-11T19:44:51.303Z,6.50
2023-01-11T19:47:18.105Z,6.50
2023-01-11T19:49:44.910Z,6.40
2023-01-11T19:52:14.452Z,6.40
2023-01-11T19:54:42.597Z,6.40
2023-01-11T19:57:22.804Z,6.30
2023-01-11T19:59:49.934Z,6.30
2023-01-11T20:02:19.152Z,6.30
2023-01-11T20:04:46.051Z,6.20
2023-01-11T20:07:13.384Z,6.20
2023-01-11T20:09:40.216Z,6.20
2023-01-11T20:12:08.530Z,6.20
2023-01-11T20:14:36.475Z,6.20
2023-01-11T20:17:03.410Z,6.20
2023-01-11T20:19:30.228Z,6.20
2023-01-11T20:21:57.191Z,6.30
2023-01-11T20:24:28.362Z,6.30
2023-01-11T20:27:01.100Z,6.30
2023-01-11T20:29:28.044Z,6.30
2023-01-11T20:31:55.106Z,6.30
2023-01-11T20:34:21.993Z,6.30
2023-01-11T20:36:48.982Z,6.30
2023-01-11T20:39:17.357Z,6.30
2023-01-11T20:41:46.995Z,6.30
2023-01-11T20:44:24.971Z,6.30
2023-01-11T20:46:52.745Z,6.30
2023-01-11T20:49:21.665Z,6.30
2023-01-11T20:51:48.493Z,6.40
2023-01-11T20:54:15.517Z,6.40
2023-01-11T20:56:42.484Z,6.40
2023-01-11T21:01:37.467Z,6.40
2023-01-11T21:04:09.007Z,6.40
2023-01-11T21:06:40.764Z,6.40
2023-01-11T21:09:08.938Z,6.40
2023-01-11T21:11:36.224Z,6.40
2023-01-11T21:14:04.156Z,6.40
2023-01-11T21:16:31.429Z,6.40
2023-01-11T21:19:02.222Z,6.40
2023-01-11T21:21:30.650Z,6.40
2023-01-11T21:23:59.917Z,6.40
2023-01-11T21:26:27.628Z,6.40
2023-01-11T21:28:58.777Z,6.40
2023-01-11T21:31:27.247Z,6.40
2023-01-11T21:33:54.398Z,6.40
2023-01-11T21:36:23.314Z,6.40
2023-01-11T21:38:50.158Z,6.40
2023-01-11T21:41:37.589Z,6.40
2023-01-11T21:44:21.400Z,6.40
2023-01-11T21:47:58.091Z,6.40
2023-01-11T21:51:17.694Z,6.40
2023-01-11T22:01:44.478Z,6.30
2023-01-11T22:04:23.830Z,6.40
2023-01-11T22:10:34.008Z,6.30
2023-01-11T22:13:31.674Z,6.40
2023-01-11T22:16:15.116Z,6.40
2023-01-11T22:19:19.136Z,6.40
2023-01-11T22:21:49.003Z,6.40
2023-01-11T22:24:22.052Z,6.40
2023-01-11T22:28:04.080Z,6.50
2023-01-11T22:30:42.751Z,6.50
2023-01-11T22:33:23.882Z,6.50
2023-01-11T22:36:07.081Z,6.50
2023-01-11T22:38:36.870Z,6.50
2023-01-11T22:49:41.674Z,6.60
2023-01-11T22:52:11.458Z,6.60
2023-01-11T22:54:53.662Z,6.60
2023-01-11T22:58:16.489Z,6.70
2023-01-11T23:08:58.582Z,6.70
2023-01-11T23:12:02.411Z,6.70
2023-01-11T23:14:33.330Z,6.70
2023-01-11T23:17:19.311Z,6.70
2023-01-11T23:20:07.969Z,6.70
2023-01-11T23:26:23.892Z,6.80
2023-01-11T23:32:31.080Z,6.80
2023-01-11T23:43:19.927Z,6.90
2023-01-11T23:49:40.000Z,6.90
2023-01-11T23:53:09.386Z,6.90
2023-01-11T23:55:36.149Z,6.90
2023-01-11T23:58:12.043Z,6.90
